Time;durP1;ratioP1;P1;durP2;ratioP2;P2;SDS_P1;SDS_P2;PMS_P1;PMS_P2;Temp;Humidity;BMP_temperature;BMP_pressure;BME280_temperature;BME280_humidity;BME280_pressure;Samples;Min_cycle;Max_cycle;Signal;HPM_P1;HPM_P2
2023/04/30 00:00:29;;;;;;;8.60;3.38;;;;;;;;;;5044570;28;20045;-76
2023/04/30 00:02:56;;;;;;;8.85;3.42;;;;;;;;;;5036049;28;20065;-73
2023/04/30 00:05:23;;;;;;;7.65;3.40;;;;;;;;;;5032515;28;20084;-75
2023/04/30 00:07:50;;;;;;;5.78;2.70;;;;;;;;;;5028050;28;20057;-75
2023/04/30 00:10:18;;;;;;;7.05;3.20;;;;;;;;;;5044033;28;20049;-74
2023/04/30 00:12:45;;;;;;;8.32;3.08;;;;;;;;;;5027330;28;20053;-73
2023/04/30 00:15:11;;;;;;;8.40;3.55;;;;;;;;;;5020237;28;20053;-72
2023/04/30 00:17:40;;;;;;;9.60;3.30;;;;;;;;;;5043828;28;20049;-72
2023/04/30 00:20:08;;;;;;;6.43;3.20;;;;;;;;;;5045818;28;20129;-71
2023/04/30 00:22:35;;;;;;;7.47;3.60;;;;;;;;;;5023549;28;20192;-71
2023/04/30 00:25:01;;;;;;;6.85;3.03;;;;;;;;;;5060030;28;20515;-76
2023/04/30 00:27:30;;;;;;;7.07;3.25;;;;;;;;;;5067164;28;20102;-74
2023/04/30 00:29:57;;;;;;;7.47;3.10;;;;;;;;;;5053079;28;20090;-74
2023/04/30 00:32:25;;;;;;;6.15;3.25;;;;;;;;;;5046517;28;20079;-72
2023/04/30 00:34:52;;;;;;;5.90;2.70;;;;;;;;;;5037179;28;20128;-76
2023/04/30 00:37:19;;;;;;;7.75;3.10;;;;;;;;;;5028208;28;20135;-73
2023/04/30 00:39:45;;;;;;;7.35;3.10;;;;;;;;;;5028580;28;20053;-73
2023/04/30 00:42:14;;;;;;;8.63;3.03;;;;;;;;;;5029059;28;20060;-72
2023/04/30 00:44:42;;;;;;;6.18;3.00;;;;;;;;;;5068265;28;20053;-76
2023/04/30 00:47:09;;;;;;;7.75;3.13;;;;;;;;;;5036117;28;20053;-73
2023/04/30 00:49:35;;;;;;;9.60;3.95;;;;;;;;;;5031557;28;20083;-72
2023/04/30 00:52:02;;;;;;;7.00;3.15;;;;;;;;;;5001397;28;20050;-74
2023/04/30 00:54:31;;;;;;;6.55;2.90;;;;;;;;;;5024390;28;20133;-74
2023/04/30 00:56:58;;;;;;;8.63;3.35;;;;;;;;;;5052659;28;20060;-72
2023/04/30 00:59:25;;;;;;;7.07;3.47;;;;;;;;;;5030339;28;20141;-74
2023/04/30 01:01:53;;;;;;;8.40;3.10;;;;;;;;;;5039572;28;20075;-75
2023/04/30 01:04:20;;;;;;;6.05;2.92;;;;;;;;;;5033546;28;20068;-75
2023/04/30 01:06:47;;;;;;;8.63;3.58;;;;;;;;;;5051522;28;20045;-71
2023/04/30 01:09:13;;;;;;;7.63;3.20;;;;;;;;;;5043495;28;20053;-72
2023/04/30 01:11:49;;;;;;;8.35;3.55;;;;;;;;;;5029899;28;20132;-75
2023/04/30 01:14:18;;;;;;;6.68;2.85;;;;;;;;;;5038739;28;20052;-73
2023/04/30 01:16:49;;;;;;;6.07;2.80;;;;;;;;;;5040988;28;20123;-73
2023/04/30 01:19:28;;;;;;;6.25;3.00;;;;;;;;;;5043022;28;20068;-72
2023/04/30 01:21:56;;;;;;;6.28;3.03;;;;;;;;;;5018779;28;20058;-75
2023/04/30 01:24:33;;;;;;;9.27;2.83;;;;;;;;;;4956571;28;20043;-73
2023/04/30 01:27:07;;;;;;;6.75;3.15;;;;;;;;;;4942083;28;20046;-72
2023/04/30 01:29:36;;;;;;;7.13;3.30;;;;;;;;;;4955445;28;20179;-73
2023/04/30 01:32:03;;;;;;;9.60;3.22;;;;;;;;;;4948051;28;20050;-74
2023/04/30 01:34:30;;;;;;;7.38;2.92;;;;;;;;;;4906923;29;20135;-73
2023/04/30 01:37:05;;;;;;;6.25;2.85;;;;;;;;;;4902451;29;20303;-74
2023/04/30 01:39:39;;;;;;;7.85;3.22;;;;;;;;;;4892427;29;20051;-74
2023/04/30 01:42:10;;;;;;;7.15;2.95;;;;;;;;;;4927572;28;20174;-73
2023/04/30 01:44:48;;;;;;;8.07;3.47;;;;;;;;;;4995930;28;20048;-75
2023/04/30 01:47:21;;;;;;;8.80;3.03;;;;;;;;;;5059917;28;20056;-75
2023/04/30 01:49:52;;;;;;;8.40;2.97;;;;;;;;;;5056838;28;20217;-74
2023/04/30 01:52:21;;;;;;;7.70;3.03;;;;;;;;;;5007021;28;20059;-71
2023/04/30 01:54:51;;;;;;;8.70;3.20;;;;;;;;;;4999160;28;20053;-71
2023/04/30 01:57:21;;;;;;;6.80;3.08;;;;;;;;;;5030893;28;20045;-73
2023/04/30 01:59:49;;;;;;;6.93;3.00;;;;;;;;;;5044663;28;20160;-72
2023/04/30 02:02:16;;;;;;;6.53;3.30;;;;;;;;;;5040163;28;20063;-70
2023/04/30 02:04:44;;;;;;;6.03;2.83;;;;;;;;;;4946276;28;20085;-72
2023/04/30 02:07:11;;;;;;;5.75;2.90;;;;;;;;;;4994875;28;20042;-71
2023/04/30 02:09:37;;;;;;;9.05;3.10;;;;;;;;;;5019955;28;20045;-73
2023/04/30 02:12:05;;;;;;;6.28;3.17;;;;;;;;;;5042219;28;20064;-75
2023/04/30 02:14:34;;;;;;;7.13;3.10;;;;;;;;;;5027440;28;20048;-73
2023/04/30 02:17:03;;;;;;;7.30;3.15;;;;;;;;;;5050509;28;20069;-73
2023/04/30 02:19:30;;;;;;;6.60;2.92;;;;;;;;;;5053954;28;20048;-74
2023/04/30 02:21:57;;;;;;;7.97;3.10;;;;;;;;;;5029673;28;20059;-71
2023/04/30 02:24:23;;;;;;;7.68;3.05;;;;;;;;;;4992209;28;20085;-73
2023/04/30 02:26:50;;;;;;;5.80;2.50;;;;;;;;;;5006236;28;20085;-70
2023/04/30 02:29:17;;;;;;;8.07;3.20;;;;;;;;;;5017352;28;20045;-73
2023/04/30 02:34:14;;;;;;;7.05;3.10;;;;;;;;;;4980555;28;20054;-72
2023/04/30 02:36:41;;;;;;;8.25;3.42;;;;;;;;;;4890824;28;20059;-73
2023/04/30 02:39:08;;;;;;;9.57;2.65;;;;;;;;;;4904458;29;20055;-76
2023/04/30 02:41:35;;;;;;;7.35;3.10;;;;;;;;;;4916170;29;20057;-75
2023/04/30 02:44:02;;;;;;;7.05;2.80;;;;;;;;;;4918524;29;20055;-75
2023/04/30 02:46:28;;;;;;;7.65;3.15;;;;;;;;;;4897652;28;20047;-76
2023/04/30 02:48:55;;;;;;;6.28;2.97;;;;;;;;;;4951977;28;20042;-75
2023/04/30 02:51:23;;;;;;;8.02;3.10;;;;;;;;;;4956859;28;20057;-72
2023/04/30 02:53:50;;;;;;;7.18;2.92;;;;;;;;;;4964343;28;20050;-74
2023/04/30 02:56:17;;;;;;;6.22;2.97;;;;;;;;;;4954565;28;20069;-76
2023/04/30 02:58:43;;;;;;;7.75;3.30;;;;;;;;;;4953063;28;20054;-72
2023/04/30 03:01:10;;;;;;;7.50;3.15;;;;;;;;;;4960147;28;20061;-73
2023/04/30 03:03:37;;;;;;;6.05;2.85;;;;;;;;;;4957397;28;20134;-74
2023/04/30 03:06:03;;;;;;;6.43;2.92;;;;;;;;;;4909091;28;20063;-76
2023/04/30 03:08:32;;;;;;;8.05;3.20;;;;;;;;;;4942006;28;20050;-71
2023/04/30 03:10:58;;;;;;;6.03;2.95;;;;;;;;;;4940825;28;20042;-72
2023/04/30 03:13:25;;;;;;;7.68;2.78;;;;;;;;;;4956098;28;20077;-72
2023/04/30 03:15:56;;;;;;;7.43;3.08;;;;;;;;;;4961032;28;20081;-73
2023/04/30 03:18:23;;;;;;;7.28;2.75;;;;;;;;;;4956816;28;20077;-73
2023/04/30 03:20:50;;;;;;;6.10;2.80;;;;;;;;;;4952351;28;20137;-74
2023/04/30 03:23:16;;;;;;;6.38;3.08;;;;;;;;;;4966785;28;20147;-71
2023/04/30 03:25:47;;;;;;;5.85;2.72;;;;;;;;;;4947092;28;20062;-72
2023/04/30 03:28:14;;;;;;;8.25;3.22;;;;;;;;;;4960636;28;20050;-72
2023/04/30 03:30:41;;;;;;;6.20;2.97;;;;;;;;;;4936849;28;20074;-71
2023/04/30 03:33:08;;;;;;;5.95;2.65;;;;;;;;;;4939637;28;20047;-70
2023/04/30 03:35:34;;;;;;;7.25;2.80;;;;;;;;;;4936190;28;20071;-72
2023/04/30 03:38:01;;;;;;;6.28;3.00;;;;;;;;;;4939589;28;20065;-71
2023/04/30 03:40:28;;;;;;;7.03;3.00;;;;;;;;;;4945348;28;20046;-71
2023/04/30 03:42:56;;;;;;;6.40;2.83;;;;;;;;;;4932344;28;20047;-72
2023/04/30 03:45:25;;;;;;;5.95;2.70;;;;;;;;;;4930683;28;20059;-71
2023/04/30 03:47:56;;;;;;;5.68;2.55;;;;;;;;;;4955698;28;20262;-70
2023/04/30 03:50:23;;;;;;;4.70;2.40;;;;;;;;;;4940372;28;20061;-75
2023/04/30 03:52:49;;;;;;;6.63;2.90;;;;;;;;;;4931416;28;20054;-72
2023/04/30 03:55:16;;;;;;;7.38;2.70;;;;;;;;;;4929167;28;20055;-74
2023/04/30 03:57:43;;;;;;;6.60;2.88;;;;;;;;;;4945235;28;20057;-75
2023/04/30 04:00:12;;;;;;;7.32;2.83;;;;;;;;;;4941467;28;20055;-75
2023/04/30 04:02:39;;;;;;;5.68;2.55;;;;;;;;;;4932085;28;20139;-74
2023/04/30 04:05:08;;;;;;;5.40;2.45;;;;;;;;;;4943316;28;20135;-72
2023/04/30 04:07:34;;;;;;;;;;;;;;;;;;4920342;28;20131;-73
2023/04/30 04:10:01;;;;;;;4.40;2.13;;;;;;;;;;4938518;28;19922;-71
2023/04/30 04:12:30;;;;;;;5.45;2.33;;;;;;;;;;4933426;28;20055;-71
2023/04/30 04:14:59;;;;;;;4.25;2.22;;;;;;;;;;4907941;28;20128;-72
2023/04/30 04:17:30;;;;;;;5.50;2.30;;;;;;;;;;4900446;28;20065;-73
2023/04/30 04:19:58;;;;;;;5.57;2.58;;;;;;;;;;4923566;28;20074;-73
2023/04/30 04:22:26;;;;;;;5.57;2.63;;;;;;;;;;4924018;29;20070;-75
2023/04/30 04:24:54;;;;;;;5.82;2.55;;;;;;;;;;4898217;28;20089;-75
2023/04/30 04:27:24;;;;;;;10.98;2.88;;;;;;;;;;4940851;28;20065;-75
2023/04/30 04:29:52;;;;;;;6.13;2.72;;;;;;;;;;4959505;28;20050;-72
2023/04/30 04:32:20;;;;;;;;;;;;;;;;;;4959365;28;20109;-73
2023/04/30 04:34:53;;;;;;;4.75;2.22;;;;;;;;;;4928499;28;19947;-72
2023/04/30 04:37:22;;;;;;;4.97;2.53;;;;;;;;;;4866012;29;20060;-74
2023/04/30 04:39:55;;;;;;;5.43;2.40;;;;;;;;;;4879725;29;20048;-71
2023/04/30 04:42:25;;;;;;;8.30;3.00;;;;;;;;;;4904546;29;20058;-72
2023/04/30 04:44:51;;;;;;;5.95;2.60;;;;;;;;;;4922346;28;20149;-73
2023/04/30 04:47:21;;;;;;;5.20;2.33;;;;;;;;;;4958247;28;20121;-72
2023/04/30 04:49:50;;;;;;;6.85;2.53;;;;;;;;;;4955477;28;20078;-72
2023/04/30 04:52:16;;;;;;;5.20;2.35;;;;;;;;;;4961802;28;20079;-70
2023/04/30 04:54:43;;;;;;;5.15;2.53;;;;;;;;;;4943375;28;20058;-74
2023/04/30 04:57:10;;;;;;;7.47;2.80;;;;;;;;;;4956653;28;20133;-75
2023/04/30 04:59:37;;;;;;;5.38;2.38;;;;;;;;;;4955828;28;20062;-72
2023/04/30 05:02:07;;;;;;;6.95;2.80;;;;;;;;;;4944316;28;20062;-73
2023/04/30 05:04:34;;;;;;;6.15;2.47;;;;;;;;;;4935561;28;20110;-74
2023/04/30 05:07:09;;;;;;;4.93;2.33;;;;;;;;;;4904957;29;20142;-72
2023/04/30 05:09:36;;;;;;;5.88;2.33;;;;;;;;;;4938529;29;20055;-74
2023/04/30 05:12:03;;;;;;;4.85;2.17;;;;;;;;;;4939028;29;20051;-75
2023/04/30 05:14:30;;;;;;;6.00;2.20;;;;;;;;;;4939025;29;20066;-73
2023/04/30 05:16:58;;;;;;;6.32;2.35;;;;;;;;;;4915574;28;20059;-74
2023/04/30 05:19:25;;;;;;;;;;;;;;;;;;4941459;29;20055;-73
2023/04/30 05:21:55;;;;;;;5.25;2.10;;;;;;;;;;4937710;28;19922;-72
2023/04/30 05:24:24;;;;;;;5.70;2.67;;;;;;;;;;4957226;28;20051;-75
2023/04/30 05:26:51;;;;;;;4.93;2.30;;;;;;;;;;4930409;28;20069;-73
2023/04/30 05:29:18;;;;;;;6.75;2.35;;;;;;;;;;4955857;28;20082;-72
2023/04/30 05:31:45;;;;;;;7.07;2.40;;;;;;;;;;4939169;28;20055;-72
2023/04/30 05:34:11;;;;;;;6.43;2.35;;;;;;;;;;4922143;28;20067;-76
2023/04/30 05:36:41;;;;;;;5.63;2.20;;;;;;;;;;4863049;29;20067;-75
2023/04/30 05:39:09;;;;;;;4.78;2.38;;;;;;;;;;4934031;28;20059;-72
2023/04/30 05:41:38;;;;;;;5.75;2.33;;;;;;;;;;4942381;29;20055;-71
2023/04/30 05:44:05;;;;;;;4.95;2.15;;;;;;;;;;4956379;28;20430;-73
2023/04/30 05:46:34;;;;;;;6.50;2.33;;;;;;;;;;4887516;29;20079;-73
2023/04/30 05:49:00;;;;;;;;;;;;;;;;;;4910157;29;20052;-73
2023/04/30 05:51:28;;;;;;;5.25;2.28;;;;;;;;;;4917442;29;19970;-72
2023/04/30 05:53:56;;;;;;;5.88;2.38;;;;;;;;;;4941841;29;20055;-73
2023/04/30 05:56:23;;;;;;;5.93;2.58;;;;;;;;;;4943981;28;20085;-72
2023/04/30 05:58:51;;;;;;;6.00;2.15;;;;;;;;;;4928589;28;20138;-74
2023/04/30 06:01:19;;;;;;;5.18;2.42;;;;;;;;;;4954790;28;20072;-74
2023/04/30 06:03:48;;;;;;;5.32;2.25;;;;;;;;;;4938727;29;20074;-72
2023/04/30 06:06:14;;;;;;;5.32;2.13;;;;;;;;;;4921940;28;20181;-74
2023/04/30 06:08:44;;;;;;;6.30;2.35;;;;;;;;;;4930784;28;20086;-72
2023/04/30 06:11:14;;;;;;;7.03;2.30;;;;;;;;;;4940849;29;20110;-71
2023/04/30 06:13:43;;;;;;;8.68;3.05;;;;;;;;;;4951701;28;20063;-75
2023/04/30 06:16:11;;;;;;;7.28;3.42;;;;;;;;;;4937270;28;20065;-74
2023/04/30 06:18:39;;;;;;;6.38;2.70;;;;;;;;;;4932993;28;20138;-72
2023/04/30 06:21:08;;;;;;;7.00;2.53;;;;;;;;;;4941752;28;20086;-72
2023/04/30 06:23:40;;;;;;;6.82;2.47;;;;;;;;;;4937566;28;20128;-74
2023/04/30 06:26:07;;;;;;;6.63;2.60;;;;;;;;;;4928499;28;20059;-75
2023/04/30 06:28:35;;;;;;;5.50;2.65;;;;;;;;;;4936421;28;20158;-74
2023/04/30 06:31:04;;;;;;;6.80;2.72;;;;;;;;;;4935759;28;20054;-74
2023/04/30 06:33:30;;;;;;;;;;;;;;;;;;4955483;28;20051;-73
2023/04/30 06:36:00;;;;;;;7.93;2.45;;;;;;;;;;4940035;28;19934;-74
2023/04/30 06:38:28;;;;;;;7.20;2.90;;;;;;;;;;4936780;29;20062;-73
2023/04/30 06:40:55;;;;;;;7.70;3.08;;;;;;;;;;4933094;28;20113;-74
2023/04/30 06:43:21;;;;;;;10.63;3.05;;;;;;;;;;4941495;28;20083;-73
2023/04/30 06:45:48;;;;;;;6.70;3.20;;;;;;;;;;4932907;28;20148;-72
2023/04/30 06:48:14;;;;;;;8.70;3.20;;;;;;;;;;4945860;28;20066;-71
2023/04/30 06:50:46;;;;;;;7.00;3.05;;;;;;;;;;4949957;28;20062;-74
2023/04/30 06:53:17;;;;;;;7.18;3.05;;;;;;;;;;4963599;28;20081;-74
2023/04/30 06:55:45;;;;;;;7.55;3.17;;;;;;;;;;4919280;28;20181;-73
2023/04/30 06:58:12;;;;;;;7.95;3.30;;;;;;;;;;4884417;29;20088;-74
2023/04/30 07:00:38;;;;;;;8.13;3.30;;;;;;;;;;4889049;28;20055;-75
2023/04/30 07:03:07;;;;;;;5.43;2.83;;;;;;;;;;4943530;28;20054;-77
2023/04/30 07:05:45;;;;;;;6.50;3.28;;;;;;;;;;4934828;28;20224;-78
2023/04/30 07:08:17;;;;;;;6.27;3.23;;;;;;;;;;4854697;29;20109;-74
2023/04/30 07:10:45;;;;;;;8.00;3.30;;;;;;;;;;4882079;29;20160;-75
2023/04/30 07:13:25;;;;;;;7.38;3.55;;;;;;;;;;4895411;29;20056;-71
2023/04/30 07:15:51;;;;;;;7.47;3.55;;;;;;;;;;4923648;28;20133;-73
2023/04/30 07:18:21;;;;;;;8.05;3.13;;;;;;;;;;4952495;28;20058;-75
2023/04/30 07:20:48;;;;;;;8.23;3.38;;;;;;;;;;4946598;28;20123;-75
2023/04/30 07:23:17;;;;;;;9.07;3.22;;;;;;;;;;4946103;28;20055;-73
2023/04/30 07:25:43;;;;;;;;;;;;;;;;;;4931497;28;20061;-71
2023/04/30 07:28:15;;;;;;;6.80;3.03;;;;;;;;;;4892381;29;19931;-75
2023/04/30 07:30:42;;;;;;;7.38;3.08;;;;;;;;;;4922560;28;20070;-75
2023/04/30 07:33:09;;;;;;;6.70;2.88;;;;;;;;;;4922600;29;20143;-73
2023/04/30 07:35:36;;;;;;;6.40;2.97;;;;;;;;;;4914909;29;20146;-72
2023/04/30 07:38:04;;;;;;;7.05;3.03;;;;;;;;;;4902317;29;20055;-73
2023/04/30 07:40:35;;;;;;;;;;;;;;;;;;4927071;29;20051;-73
2023/04/30 07:43:02;;;;;;;6.35;2.78;;;;;;;;;;4929122;28;19934;-71
2023/04/30 07:45:32;;;;;;;7.40;3.15;;;;;;;;;;4933151;29;20063;-74
2023/04/30 07:47:58;;;;;;;6.25;2.75;;;;;;;;;;4901728;29;20056;-72
2023/04/30 07:50:27;;;;;;;9.27;3.17;;;;;;;;;;4924230;29;20043;-72
2023/04/30 07:52:53;;;;;;;6.80;3.20;;;;;;;;;;4920011;28;20062;-73
2023/04/30 07:55:20;;;;;;;6.05;2.97;;;;;;;;;;4923495;29;20067;-72
2023/04/30 07:57:47;;;;;;;8.07;3.15;;;;;;;;;;4897688;29;20154;-71
2023/04/30 08:00:15;;;;;;;6.93;3.08;;;;;;;;;;4918753;29;20143;-74
2023/04/30 08:02:48;;;;;;;5.80;3.00;;;;;;;;;;4911993;28;20043;-74
2023/04/30 08:05:15;;;;;;;9.18;3.38;;;;;;;;;;4917328;29;20091;-73
2023/04/30 08:07:43;;;;;;;7.80;3.15;;;;;;;;;;4857713;29;20060;-72
2023/04/30 08:10:20;;;;;;;9.65;3.20;;;;;;;;;;4879401;29;20064;-73
2023/04/30 08:12:47;;;;;;;5.95;3.13;;;;;;;;;;4859109;29;20144;-75
2023/04/30 08:15:14;;;;;;;8.00;3.65;;;;;;;;;;4862153;29;20048;-74
2023/04/30 08:17:45;;;;;;;7.68;2.72;;;;;;;;;;4834099;29;20061;-71
2023/04/30 08:20:13;;;;;;;5.55;2.90;;;;;;;;;;4861911;29;20139;-73
2023/04/30 08:22:45;;;;;;;7.13;2.95;;;;;;;;;;4856899;29;20060;-73
2023/04/30 08:25:15;;;;;;;6.75;3.30;;;;;;;;;;4875416;29;20056;-72
2023/04/30 08:27:42;;;;;;;7.13;3.15;;;;;;;;;;4802865;29;20197;-74
2023/04/30 08:30:09;;;;;;;8.93;3.22;;;;;;;;;;4829791;29;20131;-73
2023/04/30 08:32:40;;;;;;;7.72;3.20;;;;;;;;;;4834770;29;20072;-72
2023/04/30 08:35:19;;;;;;;6.07;2.97;;;;;;;;;;4865938;29;20056;-72
2023/04/30 08:39:00;;;;;;;10.27;3.50;;;;;;;;;;5029395;27;20236;-68
2023/04/30 08:41:28;;;;;;;6.32;3.22;;;;;;;;;;5052266;28;20092;-72
2023/04/30 08:43:56;;;;;;;6.60;3.17;;;;;;;;;;5048317;28;20087;-73
2023/04/30 08:46:23;;;;;;;6.30;3.07;;;;;;;;;;5046499;28;20057;-69
2023/04/30 08:48:49;;;;;;;10.82;3.40;;;;;;;;;;5038968;28;20135;-71
2023/04/30 08:51:16;;;;;;;6.72;3.30;;;;;;;;;;5034539;28;20152;-73
2023/04/30 08:53:44;;;;;;;7.32;3.22;;;;;;;;;;5046688;28;20080;-70
2023/04/30 08:56:14;;;;;;;7.35;3.38;;;;;;;;;;5033924;28;20057;-73
2023/04/30 08:58:43;;;;;;;9.35;3.72;;;;;;;;;;5035031;28;20056;-70
2023/04/30 09:01:10;;;;;;;;;;;;;;;;;;5071300;28;20082;-72
2023/04/30 09:03:39;;;;;;;8.43;3.13;;;;;;;;;;5071345;28;19925;-71
2023/04/30 09:06:08;;;;;;;6.82;3.17;;;;;;;;;;5050088;28;20067;-71
2023/04/30 09:08:42;;;;;;;8.73;3.50;;;;;;;;;;5003179;28;20059;-70
2023/04/30 09:11:22;;;;;;;8.95;3.53;;;;;;;;;;5050543;28;20053;-73
2023/04/30 09:13:50;;;;;;;9.02;3.03;;;;;;;;;;5052240;28;20056;-72
2023/04/30 09:16:18;;;;;;;7.32;3.28;;;;;;;;;;5043024;28;20053;-72
2023/04/30 09:18:46;;;;;;;;;;;;;;;;;;4948718;28;20073;-72
2023/04/30 09:21:14;;;;;;;6.05;2.72;;;;;;;;;;5006031;28;20010;-70
2023/04/30 09:23:56;;;;;;;6.95;3.20;;;;;;;;;;5015110;28;20053;-72
2023/04/30 09:26:32;;;;;;;9.40;3.05;;;;;;;;;;5022340;28;20056;-70
2023/04/30 09:29:06;;;;;;;8.05;3.42;;;;;;;;;;4992773;28;20137;-73
2023/04/30 09:31:33;;;;;;;7.38;3.08;;;;;;;;;;5041487;28;20060;-73
2023/04/30 09:33:59;;;;;;;5.80;2.72;;;;;;;;;;5052265;28;20124;-71
2023/04/30 09:36:26;;;;;;;9.75;2.83;;;;;;;;;;5050126;28;20059;-71
2023/04/30 09:38:53;;;;;;;9.38;3.00;;;;;;;;;;5033902;28;20049;-67
2023/04/30 09:41:23;;;;;;;8.15;2.90;;;;;;;;;;5039624;28;20262;-75
2023/04/30 09:43:54;;;;;;;7.20;2.90;;;;;;;;;;5037167;28;20095;-75
2023/04/30 09:46:23;;;;;;;4.80;2.13;;;;;;;;;;5040960;28;20048;-68
2023/04/30 09:48:58;;;;;;;4.75;2.22;;;;;;;;;;5019246;28;20180;-71
2023/04/30 09:51:27;;;;;;;4.78;2.28;;;;;;;;;;5025852;28;20057;-75
2023/04/30 09:53:58;;;;;;;4.97;2.22;;;;;;;;;;5021631;28;20142;-71
2023/04/30 09:56:25;;;;;;;6.20;2.40;;;;;;;;;;5022844;28;20166;-70
2023/04/30 09:58:54;;;;;;;3.40;1.80;;;;;;;;;;5003945;28;20882;-75
2023/04/30 10:01:22;;;;;;;5.88;2.15;;;;;;;;;;5025601;28;20170;-72
2023/04/30 10:03:48;;;;;;;4.50;2.10;;;;;;;;;;5021119;28;20065;-70
2023/04/30 10:06:17;;;;;;;5.55;2.17;;;;;;;;;;5031931;28;20061;-69
2023/04/30 10:08:44;;;;;;;5.20;2.33;;;;;;;;;;5014391;28;20049;-71
2023/04/30 10:11:16;;;;;;;5.90;2.30;;;;;;;;;;5040450;28;20060;-71
2023/04/30 10:13:45;;;;;;;5.05;2.10;;;;;;;;;;5035339;28;20049;-73
2023/04/30 10:16:18;;;;;;;4.45;2.00;;;;;;;;;;5039511;28;20140;-72
2023/04/30 10:18:47;;;;;;;5.97;2.17;;;;;;;;;;4985131;28;20111;-70
2023/04/30 10:21:15;;;;;;;5.47;2.10;;;;;;;;;;5019163;28;20076;-73
2023/04/30 10:23:44;;;;;;;6.18;2.28;;;;;;;;;;5030021;28;20055;-73
2023/04/30 10:26:15;;;;;;;5.63;2.35;;;;;;;;;;5041440;28;20053;-73
2023/04/30 10:28:42;;;;;;;4.97;2.08;;;;;;;;;;5022277;28;20079;-69
2023/04/30 10:31:10;;;;;;;8.77;3.00;;;;;;;;;;5038949;28;20053;-74
2023/04/30 10:33:48;;;;;;;5.25;2.50;;;;;;;;;;5037093;28;20168;-74
2023/04/30 10:36:19;;;;;;;5.05;2.28;;;;;;;;;;5027485;28;20148;-73
2023/04/30 10:38:46;;;;;;;4.93;2.30;;;;;;;;;;4987882;28;20053;-73
2023/04/30 10:41:15;;;;;;;4.50;2.05;;;;;;;;;;5021580;28;20053;-72
2023/04/30 10:43:42;;;;;;;5.38;2.47;;;;;;;;;;5025644;28;20061;-75
2023/04/30 10:46:21;;;;;;;5.25;2.33;;;;;;;;;;5028807;28;20057;-72
2023/04/30 10:48:49;;;;;;;5.05;2.20;;;;;;;;;;4955697;28;20053;-71
2023/04/30 10:51:20;;;;;;;4.68;2.33;;;;;;;;;;5025276;28;20064;-74
2023/04/30 10:53:51;;;;;;;4.40;2.20;;;;;;;;;;5033535;28;20049;-74
2023/04/30 10:56:38;;;;;;;4.82;2.10;;;;;;;;;;5041825;28;20045;-73
2023/04/30 10:59:08;;;;;;;5.68;2.33;;;;;;;;;;5039623;28;20114;-72
2023/04/30 11:01:54;;;;;;;5.07;2.13;;;;;;;;;;5037645;28;20053;-75
2023/04/30 11:04:26;;;;;;;5.38;2.70;;;;;;;;;;5034065;28;20068;-72
2023/04/30 11:07:02;;;;;;;7.07;2.42;;;;;;;;;;5031795;28;20067;-74
2023/04/30 11:09:39;;;;;;;5.85;2.10;;;;;;;;;;5022308;28;20084;-70
2023/04/30 11:12:13;;;;;;;5.32;2.60;;;;;;;;;;5037867;28;20049;-71
2023/04/30 11:14:40;;;;;;;5.28;2.30;;;;;;;;;;5031489;28;20052;-78
2023/04/30 11:17:07;;;;;;;4.85;2.22;;;;;;;;;;5036128;28;20115;-73
2023/04/30 11:19:42;;;;;;;6.85;2.53;;;;;;;;;;4976924;28;20064;-76
2023/04/30 11:22:19;;;;;;;7.22;2.40;;;;;;;;;;5042854;28;20056;-73
2023/04/30 11:24:52;;;;;;;5.75;2.72;;;;;;;;;;5026239;28;20106;-73
2023/04/30 11:27:22;;;;;;;6.55;2.70;;;;;;;;;;5041322;28;20068;-72
2023/04/30 11:29:50;;;;;;;7.47;2.97;;;;;;;;;;5013696;28;20060;-72
2023/04/30 11:32:24;;;;;;;3.80;2.20;;;;;;;;;;5040296;28;20165;-73
2023/04/30 11:34:58;;;;;;;5.78;2.47;;;;;;;;;;5028505;28;20115;-72
2023/04/30 11:37:34;;;;;;;8.00;2.30;;;;;;;;;;5035614;28;20072;-77
2023/04/30 11:40:13;;;;;;;6.70;2.92;;;;;;;;;;4896883;28;20142;-74
2023/04/30 11:42:48;;;;;;;5.60;2.53;;;;;;;;;;4959341;28;20058;-71
2023/04/30 11:45:19;;;;;;;6.95;2.50;;;;;;;;;;4961322;28;20062;-70
2023/04/30 12:02:40;;;;;;;6.50;2.17;;;;;;;;;;4809078;29;20126;-74
2023/04/30 12:05:20;;;;;;;4.22;2.10;;;;;;;;;;4879314;28;20147;-77
2023/04/30 12:07:51;;;;;;;6.72;2.25;;;;;;;;;;4955102;28;20228;-74
2023/04/30 12:10:19;;;;;;;6.15;2.47;;;;;;;;;;4881849;28;20206;-75
2023/04/30 12:12:48;;;;;;;4.20;2.13;;;;;;;;;;4887737;28;20150;-77
2023/04/30 12:15:18;;;;;;;4.85;2.20;;;;;;;;;;4960498;28;20169;-70
2023/04/30 12:17:49;;;;;;;5.47;2.42;;;;;;;;;;4956309;28;20145;-76
2023/04/30 12:20:22;;;;;;;4.88;2.35;;;;;;;;;;4940934;28;20062;-75
2023/04/30 12:22:49;;;;;;;4.93;2.25;;;;;;;;;;5043518;28;20059;-73
2023/04/30 12:25:17;;;;;;;7.93;2.17;;;;;;;;;;5021724;28;20071;-77
2023/04/30 12:27:46;;;;;;;4.68;2.30;;;;;;;;;;5016754;28;20056;-75
2023/04/30 12:30:19;;;;;;;4.95;2.03;;;;;;;;;;5038175;28;20052;-72
2023/04/30 12:32:49;;;;;;;6.75;2.50;;;;;;;;;;5031709;28;20060;-72
2023/04/30 12:35:19;;;;;;;8.73;2.03;;;;;;;;;;5035389;28;20064;-73
2023/04/30 12:37:47;;;;;;;4.85;2.15;;;;;;;;;;5021907;28;20057;-76
2023/04/30 12:40:14;;;;;;;7.05;2.15;;;;;;;;;;5025875;28;20057;-78
2023/04/30 12:42:58;;;;;;;3.58;1.73;;;;;;;;;;5027771;28;20048;-76
2023/04/30 12:45:44;;;;;;;5.82;1.90;;;;;;;;;;5006371;28;20143;-72
2023/04/30 12:48:13;;;;;;;5.35;1.98;;;;;;;;;;5014704;28;20057;-70
2023/04/30 12:50:40;;;;;;;4.35;1.90;;;;;;;;;;5033536;28;20076;-73
2023/04/30 12:53:07;;;;;;;6.53;1.80;;;;;;;;;;5016799;28;20139;-71
2023/04/30 12:55:36;;;;;;;2.75;1.63;;;;;;;;;;5018159;28;20080;-71
2023/04/30 12:58:05;;;;;;;3.45;1.60;;;;;;;;;;5009721;28;20063;-77
2023/04/30 13:00:44;;;;;;;3.17;1.67;;;;;;;;;;5014780;28;20056;-71
2023/04/30 13:06:30;;;;;;;4.28;1.70;;;;;;;;;;5025318;28;20048;-74
2023/04/30 13:09:23;;;;;;;2.67;1.40;;;;;;;;;;4926253;28;20075;-78
2023/04/30 13:12:02;;;;;;;3.60;1.40;;;;;;;;;;4905322;29;20077;-72
2023/04/30 13:14:51;;;;;;;3.47;1.17;;;;;;;;;;4912552;29;20164;-75
2023/04/30 13:17:24;;;;;;;435.05;18.02;;;;;;;;;;4919007;29;20052;-71
2023/04/30 13:23:17;;;;;;;;;;;;;;;;;;;;;
2023/04/30 13:25:55;;;;;;;13.07;1.92;;;;;;;;;;4957485;28;20054;-73
2023/04/30 13:29:00;;;;;;;5.22;1.40;;;;;;;;;;4952832;28;20173;-73
2023/04/30 13:31:52;;;;;;;8.20;1.40;;;;;;;;;;4991722;28;20046;-72
2023/04/30 13:37:46;;;;;;;;;;;;;;;;;;;;;
2023/04/30 13:40:23;;;;;;;5.28;1.15;;;;;;;;;;4844944;29;20066;-74
2023/04/30 13:42:54;;;;;;;4.07;1.25;;;;;;;;;;4923426;28;20063;-70
2023/04/30 13:45:21;;;;;;;5.03;1.10;;;;;;;;;;4946252;28;20074;-70
2023/04/30 13:47:48;;;;;;;3.58;1.42;;;;;;;;;;4959199;28;20074;-71
2023/04/30 13:50:17;;;;;;;3.58;1.08;;;;;;;;;;4930810;28;20077;-70
2023/04/30 13:53:06;;;;;;;;;;;;;;;;;;;;;
2023/04/30 13:55:35;;;;;;;3.03;1.10;;;;;;;;;;4992886;28;20050;-71
2023/04/30 13:58:07;;;;;;;3.65;1.30;;;;;;;;;;4994848;28;20050;-71
2023/04/30 14:00:40;;;;;;;2.80;1.10;;;;;;;;;;4958133;28;20069;-72
2023/04/30 14:03:10;;;;;;;2.40;1.00;;;;;;;;;;4990042;28;20083;-75
2023/04/30 14:05:37;;;;;;;2.90;1.00;;;;;;;;;;4986480;28;20081;-71
2023/04/30 14:08:04;;;;;;;2.60;1.08;;;;;;;;;;4991215;28;20047;-73
2023/04/30 14:10:32;;;;;;;1.73;1.00;;;;;;;;;;4940749;28;20128;-70
2023/04/30 14:13:11;;;;;;;1.38;0.95;;;;;;;;;;4967322;28;20933;-73
2023/04/30 14:15:53;;;;;;;1.50;0.93;;;;;;;;;;4975996;28;20058;-74
2023/04/30 14:24:38;;;;;;;;;;;;;;;;;;;;;
2023/04/30 14:27:33;;;;;;;1.83;0.90;;;;;;;;;;4853915;29;20045;-71
2023/04/30 14:43:26;;;;;;;1.35;0.82;;;;;;;;;;5088837;27;20452;-78
2023/04/30 14:46:07;;;;;;;1.83;1.02;;;;;;;;;;5078479;28;20048;-80
2023/04/30 14:49:06;;;;;;;62.42;2.92;;;;;;;;;;5069226;28;20059;-73
2023/04/30 15:03:14;;;;;;;4.55;0.93;;;;;;;;;;4954496;28;19934;-72
2023/04/30 15:05:56;;;;;;;8.00;1.38;;;;;;;;;;4918356;28;20055;-71
2023/04/30 15:08:51;;;;;;;;;;;;;;;;;;;;;
2023/04/30 15:34:35;;;;;;;2.95;0.80;;;;;;;;;;5039425;27;20450;-73
2023/04/30 15:37:05;;;;;;;2.45;0.80;;;;;;;;;;5031388;28;20248;-72
2023/04/30 15:39:34;;;;;;;1.60;0.80;;;;;;;;;;5033805;28;20055;-72
2023/04/30 15:42:00;;;;;;;2.72;0.82;;;;;;;;;;4957923;28;20082;-72
2023/04/30 15:44:35;;;;;;;3.25;1.00;;;;;;;;;;5032842;28;20058;-72
2023/04/30 15:47:02;;;;;;;8.75;1.10;;;;;;;;;;5008592;28;20060;-74
2023/04/30 15:49:28;;;;;;;1.45;1.00;;;;;;;;;;5012587;28;20049;-72
2023/04/30 15:51:58;;;;;;;4.18;1.05;;;;;;;;;;4994984;28;20155;-76
2023/04/30 15:54:30;;;;;;;4.32;0.88;;;;;;;;;;5034554;28;20162;-74
2023/04/30 15:56:57;;;;;;;2.88;0.90;;;;;;;;;;5057443;28;20332;-77
2023/04/30 15:59:26;;;;;;;2.25;1.00;;;;;;;;;;5069540;28;20064;-74
2023/04/30 16:01:53;;;;;;;2.63;0.90;;;;;;;;;;5051411;28;20083;-72
2023/04/30 16:04:29;;;;;;;2.13;1.00;;;;;;;;;;5029609;28;20063;-73
2023/04/30 16:06:57;;;;;;;1.23;0.82;;;;;;;;;;5054799;28;20052;-76
2023/04/30 16:09:26;;;;;;;;;;;;;;;;;;5034352;28;20075;-73
2023/04/30 16:11:53;;;;;;;3.17;1.08;;;;;;;;;;4976845;28;19925;-68
2023/04/30 16:14:33;;;;;;;2.47;1.00;;;;;;;;;;5011538;28;20061;-71
2023/04/30 16:17:02;;;;;;;3.38;0.93;;;;;;;;;;5001237;28;20173;-73
2023/04/30 16:19:29;;;;;;;2.45;0.90;;;;;;;;;;5003869;28;20058;-73
2023/04/30 16:21:58;;;;;;;1.77;0.90;;;;;;;;;;5001817;28;20057;-72
2023/04/30 16:24:28;;;;;;;1.33;0.80;;;;;;;;;;5066594;28;20053;-76
2023/04/30 16:26:59;;;;;;;2.50;0.90;;;;;;;;;;5053503;28;20076;-70
2023/04/30 16:29:26;;;;;;;3.88;1.00;;;;;;;;;;5062287;28;20069;-75